sensor_id;sensor_type;location;lat;lon;timestamp;pressure;altitude;pressure_sealevel;temperature;humidity
60212;BME280;46079;48.686;15.598;2023-04-09T00:02:11;100492.28;;;19.62;42.97
60212;BME280;46079;48.686;15.598;2023-04-09T00:04:36;100496.69;;;19.61;42.89
60212;BME280;46079;48.686;15.598;2023-04-09T00:07:01;100497.50;;;19.62;43.06
60212;BME280;46079;48.686;15.598;2023-04-09T00:09:27;100494.75;;;19.63;42.85
60212;BME280;46079;48.686;15.598;2023-04-09T00:11:52;100493.94;;;19.63;43.32
60212;BME280;46079;48.686;15.598;2023-04-09T00:14:18;100492.03;;;19.65;43.17
60212;BME280;46079;48.686;15.598;2023-04-09T00:16:43;100492.03;;;19.65;43.16
60212;BME280;46079;48.686;15.598;2023-04-09T00:19:09;100491.19;;;19.64;43.16
60212;BME280;46079;48.686;15.598;2023-04-09T00:21:38;100487.59;;;19.65;42.98
60212;BME280;46079;48.686;15.598;2023-04-09T00:24:04;100489.31;;;19.66;42.95
60212;BME280;46079;48.686;15.598;2023-04-09T00:26:30;100485.75;;;19.67;43.20
60212;BME280;46079;48.686;15.598;2023-04-09T00:28:55;100486.69;;;19.66;43.35
60212;BME280;46079;48.686;15.598;2023-04-09T00:31:21;100495.28;;;19.68;42.91
60212;BME280;46079;48.686;15.598;2023-04-09T00:33:46;100486.56;;;19.68;43.30
60212;BME280;46079;48.686;15.598;2023-04-09T00:36:12;100482.97;;;19.69;43.17
60212;BME280;46079;48.686;15.598;2023-04-09T00:38:37;100477.72;;;19.69;43.01
60212;BME280;46079;48.686;15.598;2023-04-09T00:41:03;100485.50;;;19.70;43.21
60212;BME280;46079;48.686;15.598;2023-04-09T00:43:28;100495.16;;;19.70;43.13
60212;BME280;46079;48.686;15.598;2023-04-09T00:45:53;100491.56;;;19.71;43.07
60212;BME280;46079;48.686;15.598;2023-04-09T00:48:19;100488.94;;;19.71;43.08
60212;BME280;46079;48.686;15.598;2023-04-09T00:50:45;100489.69;;;19.73;43.12
60212;BME280;46079;48.686;15.598;2023-04-09T00:53:11;100487.06;;;19.73;43.26
60212;BME280;46079;48.686;15.598;2023-04-09T00:55:38;100487.06;;;19.73;43.04
60212;BME280;46079;48.686;15.598;2023-04-09T00:58:04;100482.63;;;19.73;43.20
60212;BME280;46079;48.686;15.598;2023-04-09T01:00:30;100486.09;;;19.74;43.20
60212;BME280;46079;48.686;15.598;2023-04-09T01:02:56;100491.22;;;19.75;43.13
60212;BME280;46079;48.686;15.598;2023-04-09T01:06:17;100485.97;;;19.75;43.17
60212;BME280;46079;48.686;15.598;2023-04-09T01:13:45;100480.59;;;19.77;42.98
60212;BME280;46079;48.686;15.598;2023-04-09T01:16:15;100480.47;;;19.79;43.10
60212;BME280;46079;48.686;15.598;2023-04-09T01:18:51;100486.56;;;19.79;43.21
60212;BME280;46079;48.686;15.598;2023-04-09T01:21:25;100482.16;;;19.80;43.15
60212;BME280;46079;48.686;15.598;2023-04-09T01:29:19;100481.22;;;19.81;42.85
60212;BME280;46079;48.686;15.598;2023-04-09T01:31:47;100475.00;;;19.82;42.99
60212;BME280;46079;48.686;15.598;2023-04-09T01:34:14;100478.44;;;19.82;43.20
60212;BME280;46079;48.686;15.598;2023-04-09T01:36:41;100474.03;;;19.83;43.32
60212;BME280;46079;48.686;15.598;2023-04-09T01:39:09;100476.53;;;19.84;43.24
60212;BME280;46079;48.686;15.598;2023-04-09T01:41:35;100473.91;;;19.84;43.18
60212;BME280;46079;48.686;15.598;2023-04-09T01:44:02;100479.06;;;19.86;43.31
60212;BME280;46079;48.686;15.598;2023-04-09T01:46:29;100474.63;;;19.86;43.46
60212;BME280;46079;48.686;15.598;2023-04-09T01:48:56;100468.41;;;19.87;43.43
60212;BME280;46079;48.686;15.598;2023-04-09T01:51:22;100472.00;;;19.86;43.38
60212;BME280;46079;48.686;15.598;2023-04-09T01:53:48;100470.09;;;19.88;43.45
60212;BME280;46079;48.686;15.598;2023-04-09T01:56:14;100478.81;;;19.89;43.09
60212;BME280;46079;48.686;15.598;2023-04-09T01:58:39;100461.25;;;19.89;43.23
60212;BME280;46079;48.686;15.598;2023-04-09T02:01:09;100475.22;;;19.90;43.48
60212;BME280;46079;48.686;15.598;2023-04-09T02:03:43;100476.88;;;19.91;43.10
60212;BME280;46079;48.686;15.598;2023-04-09T02:08:36;100480.22;;;19.93;43.29
60212;BME280;46079;48.686;15.598;2023-04-09T02:11:04;100475.81;;;19.93;43.18
60212;BME280;46079;48.686;15.598;2023-04-09T02:13:31;100467.00;;;19.94;43.35
60212;BME280;46079;48.686;15.598;2023-04-09T02:15:59;100474.03;;;19.94;43.19
60212;BME280;46079;48.686;15.598;2023-04-09T02:18:29;100461.75;;;19.94;43.33
60212;BME280;46079;48.686;15.598;2023-04-09T02:20:56;100470.44;;;19.95;43.21
60212;BME280;46079;48.686;15.598;2023-04-09T02:23:23;100466.03;;;19.95;43.38
60212;BME280;46079;48.686;15.598;2023-04-09T02:25:50;100472.09;;;19.96;43.33
60212;BME280;46079;48.686;15.598;2023-04-09T02:28:16;100480.84;;;19.96;43.29
60212;BME280;46079;48.686;15.598;2023-04-09T02:30:42;100483.31;;;19.98;43.33
60212;BME280;46079;48.686;15.598;2023-04-09T02:33:07;100486.78;;;19.98;43.23
60212;BME280;46079;48.686;15.598;2023-04-09T02:35:33;100485.84;;;19.99;43.17
60212;BME280;46079;48.686;15.598;2023-04-09T02:37:58;100489.31;;;20.00;43.45
60212;BME280;46079;48.686;15.598;2023-04-09T02:40:27;100486.53;;;20.02;43.25
60212;BME280;46079;48.686;15.598;2023-04-09T02:42:53;100487.50;;;20.01;43.18
60212;BME280;46079;48.686;15.598;2023-04-09T02:45:18;100479.53;;;20.02;43.23
60212;BME280;46079;48.686;15.598;2023-04-09T02:47:44;100479.53;;;20.02;43.39
60212;BME280;46079;48.686;15.598;2023-04-09T02:50:09;100480.34;;;20.03;43.24
60212;BME280;46079;48.686;15.598;2023-04-09T02:52:35;100473.31;;;20.03;43.33
60212;BME280;46079;48.686;15.598;2023-04-09T02:55:00;100474.25;;;20.02;43.41
60212;BME280;46079;48.686;15.598;2023-04-09T02:57:26;100479.38;;;20.04;43.33
60212;BME280;46079;48.686;15.598;2023-04-09T02:59:51;100474.84;;;20.06;43.34
60212;BME280;46079;48.686;15.598;2023-04-09T03:02:17;100474.03;;;20.05;43.32
60212;BME280;46079;48.686;15.598;2023-04-09T03:04:42;100479.13;;;20.07;43.15
60212;BME280;46079;48.686;15.598;2023-04-09T03:07:08;100472.94;;;20.08;43.56
60212;BME280;46079;48.686;15.598;2023-04-09T03:09:33;100473.63;;;20.10;43.33
60212;BME280;46079;48.686;15.598;2023-04-09T03:11:59;100474.50;;;20.10;43.26
60212;BME280;46079;48.686;15.598;2023-04-09T03:14:26;100477.13;;;20.10;43.30
60212;BME280;46079;48.686;15.598;2023-04-09T03:16:51;100474.50;;;20.10;43.31
60212;BME280;46079;48.686;15.598;2023-04-09T03:19:18;100478.78;;;20.11;43.27
60212;BME280;46079;48.686;15.598;2023-04-09T03:21:43;100473.53;;;20.11;43.32
60212;BME280;46079;48.686;15.598;2023-04-09T03:24:10;100480.44;;;20.12;43.42
60212;BME280;46079;48.686;15.598;2023-04-09T03:26:36;100473.38;;;20.13;43.10
60212;BME280;46079;48.686;15.598;2023-04-09T03:29:05;100476.00;;;20.13;43.44
60212;BME280;46079;48.686;15.598;2023-04-09T03:31:31;100476.88;;;20.13;43.41
60212;BME280;46079;48.686;15.598;2023-04-09T03:33:57;100476.88;;;20.13;43.22
60212;BME280;46079;48.686;15.598;2023-04-09T03:36:22;100472.44;;;20.14;43.55
60212;BME280;46079;48.686;15.598;2023-04-09T03:38:48;100469.00;;;20.13;43.33
60212;BME280;46079;48.686;15.598;2023-04-09T03:41:13;100473.28;;;20.14;43.51
60212;BME280;46079;48.686;15.598;2023-04-09T03:43:38;100479.34;;;20.15;43.35
60212;BME280;46079;48.686;15.598;2023-04-09T03:46:30;100473.28;;;20.14;43.46
60212;BME280;46079;48.686;15.598;2023-04-09T03:48:55;100480.19;;;20.15;43.31
60212;BME280;46079;48.686;15.598;2023-04-09T03:51:21;100479.34;;;20.15;43.47
60212;BME280;46079;48.686;15.598;2023-04-09T03:53:46;100483.66;;;20.16;43.40
60212;BME280;46079;48.686;15.598;2023-04-09T03:56:12;100486.31;;;20.16;43.51
60212;BME280;46079;48.686;15.598;2023-04-09T03:58:37;100480.19;;;20.15;43.37
60212;BME280;46079;48.686;15.598;2023-04-09T04:01:03;100493.22;;;20.17;43.50
60212;BME280;46079;48.686;15.598;2023-04-09T04:03:28;100492.38;;;20.16;43.51
60212;BME280;46079;48.686;15.598;2023-04-09T04:05:59;100494.03;;;20.17;43.48
60212;BME280;46079;48.686;15.598;2023-04-09T04:08:26;100494.03;;;20.17;43.49
60212;BME280;46079;48.686;15.598;2023-04-09T04:10:51;100494.03;;;20.17;43.45
60212;BME280;46079;48.686;15.598;2023-04-09T04:13:18;100494.88;;;20.18;43.38
60212;BME280;46079;48.686;15.598;2023-04-09T04:15:43;100498.34;;;20.18;43.45
60212;BME280;46079;48.686;15.598;2023-04-09T04:18:09;100502.63;;;20.19;43.46
60212;BME280;46079;48.686;15.598;2023-04-09T04:20:38;100499.19;;;20.19;43.52
60212;BME280;46079;48.686;15.598;2023-04-09T04:23:03;100506.09;;;20.20;43.55
60212;BME280;46079;48.686;15.598;2023-04-09T04:25:29;100506.91;;;20.20;43.53
60212;BME280;46079;48.686;15.598;2023-04-09T04:27:55;100511.34;;;20.20;43.47
60212;BME280;46079;48.686;15.598;2023-04-09T04:30:21;100506.91;;;20.20;43.52
60212;BME280;46079;48.686;15.598;2023-04-09T04:32:47;100507.75;;;20.21;43.45
60212;BME280;46079;48.686;15.598;2023-04-09T04:35:12;100508.63;;;20.21;43.45
60212;BME280;46079;48.686;15.598;2023-04-09T04:37:39;100511.25;;;20.21;43.61
60212;BME280;46079;48.686;15.598;2023-04-09T04:40:06;100511.25;;;20.21;43.65
60212;BME280;46079;48.686;15.598;2023-04-09T04:42:32;100521.75;;;20.21;43.64
60212;BME280;46079;48.686;15.598;2023-04-09T04:44:58;100518.16;;;20.23;43.59
60212;BME280;46079;48.686;15.598;2023-04-09T04:47:23;100519.94;;;20.22;43.45
60212;BME280;46079;48.686;15.598;2023-04-09T04:49:49;100530.31;;;20.24;43.62
60212;BME280;46079;48.686;15.598;2023-04-09T04:52:14;100525.19;;;20.22;43.66
60212;BME280;46079;48.686;15.598;2023-04-09T04:54:40;100523.41;;;20.23;43.73
60212;BME280;46079;48.686;15.598;2023-04-09T04:57:05;100528.66;;;20.23;43.53
60212;BME280;46079;48.686;15.598;2023-04-09T04:59:30;100519.94;;;20.22;43.04
60212;BME280;46079;48.686;15.598;2023-04-09T05:01:56;100518.16;;;20.23;43.13
60212;BME280;46079;48.686;15.598;2023-04-09T05:04:21;100522.44;;;20.24;43.43
60212;BME280;46079;48.686;15.598;2023-04-09T05:06:47;100532.00;;;20.25;43.45
60212;BME280;46079;48.686;15.598;2023-04-09T05:09:12;100537.25;;;20.25;43.44
60212;BME280;46079;48.686;15.598;2023-04-09T05:11:38;100533.66;;;20.26;43.34
60212;BME280;46079;48.686;15.598;2023-04-09T05:14:03;100532.84;;;20.25;43.32
60212;BME280;46079;48.686;15.598;2023-04-09T05:16:30;100535.47;;;20.25;43.44
60212;BME280;46079;48.686;15.598;2023-04-09T05:18:56;100539.75;;;20.26;43.50
60212;BME280;46079;48.686;15.598;2023-04-09T05:21:21;100532.00;;;20.25;43.41
60212;BME280;46079;48.686;15.598;2023-04-09T05:23:47;100534.63;;;20.25;43.46
60212;BME280;46079;48.686;15.598;2023-04-09T05:26:12;100535.47;;;20.25;43.45
60212;BME280;46079;48.686;15.598;2023-04-09T05:28:38;100539.75;;;20.26;43.46
60212;BME280;46079;48.686;15.598;2023-04-09T05:31:03;100537.13;;;20.26;43.30
60212;BME280;46079;48.686;15.598;2023-04-09T05:33:29;100539.75;;;20.26;43.48
60212;BME280;46079;48.686;15.598;2023-04-09T05:35:54;100543.34;;;20.25;42.66
60212;BME280;46079;48.686;15.598;2023-04-09T05:38:20;100541.91;;;20.21;40.10
60212;BME280;46079;48.686;15.598;2023-04-09T05:40:45;100548.63;;;20.14;38.93
60212;BME280;46079;48.686;15.598;2023-04-09T05:43:13;100547.66;;;20.04;38.62
60212;BME280;46079;48.686;15.598;2023-04-09T05:45:38;100564.13;;;19.94;38.42
60212;BME280;46079;48.686;15.598;2023-04-09T05:48:04;100560.78;;;19.81;38.18
60212;BME280;46079;48.686;15.598;2023-04-09T05:50:30;100562.34;;;19.72;38.27
60212;BME280;46079;48.686;15.598;2023-04-09T05:52:55;100567.41;;;19.63;38.04
60212;BME280;46079;48.686;15.598;2023-04-09T05:55:21;100569.78;;;19.54;38.23
60212;BME280;46079;48.686;15.598;2023-04-09T05:57:46;100566.91;;;19.46;38.11
60212;BME280;46079;48.686;15.598;2023-04-09T06:00:12;100568.34;;;19.39;38.21
60212;BME280;46079;48.686;15.598;2023-04-09T06:02:38;100567.94;;;19.32;38.03
60212;BME280;46079;48.686;15.598;2023-04-09T06:05:03;100566.75;;;19.25;38.12
60212;BME280;46079;48.686;15.598;2023-04-09T06:07:29;100570.88;;;19.17;38.25
60212;BME280;46079;48.686;15.598;2023-04-09T06:09:54;100576.56;;;19.10;38.36
60212;BME280;46079;48.686;15.598;2023-04-09T06:12:20;100572.63;;;19.05;38.38
60212;BME280;46079;48.686;15.598;2023-04-09T06:14:47;100569.50;;;19.00;38.54
60212;BME280;46079;48.686;15.598;2023-04-09T06:17:12;100575.09;;;18.95;38.76
60212;BME280;46079;48.686;15.598;2023-04-09T06:19:38;100573.63;;;18.91;38.76
60212;BME280;46079;48.686;15.598;2023-04-09T06:22:04;100573.13;;;18.86;38.94
60212;BME280;46079;48.686;15.598;2023-04-09T06:24:30;100582.28;;;18.80;38.95
60212;BME280;46079;48.686;15.598;2023-04-09T06:26:56;100580.94;;;18.75;38.98
60212;BME280;46079;48.686;15.598;2023-04-09T06:29:21;100575.97;;;18.70;39.03
60212;BME280;46079;48.686;15.598;2023-04-09T06:31:47;100571.94;;;18.66;38.91
60212;BME280;46079;48.686;15.598;2023-04-09T06:34:12;100576.56;;;18.62;39.13
60212;BME280;46079;48.686;15.598;2023-04-09T06:36:38;100576.78;;;18.59;39.23
60212;BME280;46079;48.686;15.598;2023-04-09T06:39:04;100574.50;;;18.55;39.38
60212;BME280;46079;48.686;15.598;2023-04-09T06:41:30;100572.19;;;18.50;39.76
60212;BME280;46079;48.686;15.598;2023-04-09T06:43:57;100584.56;;;18.48;39.64
60212;BME280;46079;48.686;15.598;2023-04-09T06:46:22;100582.16;;;18.45;39.41
60212;BME280;46079;48.686;15.598;2023-04-09T06:48:48;100579.75;;;18.42;39.57
60212;BME280;46079;48.686;15.598;2023-04-09T06:51:13;100586.88;;;18.40;39.28
60212;BME280;46079;48.686;15.598;2023-04-09T06:53:39;100579.22;;;18.37;39.38
60212;BME280;46079;48.686;15.598;2023-04-09T06:56:06;100579.97;;;18.39;39.76
60212;BME280;46079;48.686;15.598;2023-04-09T06:58:31;100588.22;;;18.45;40.66
60212;BME280;46079;48.686;15.598;2023-04-09T07:00:58;100592.09;;;18.53;41.11
60212;BME280;46079;48.686;15.598;2023-04-09T07:03:23;100587.97;;;18.61;41.12
60212;BME280;46079;48.686;15.598;2023-04-09T07:05:49;100591.84;;;18.69;41.52
60212;BME280;46079;48.686;15.598;2023-04-09T07:08:14;100595.69;;;18.76;41.51
60212;BME280;46079;48.686;15.598;2023-04-09T07:10:40;100594.31;;;18.83;41.49
60212;BME280;46079;48.686;15.598;2023-04-09T07:13:06;100601.72;;;18.89;41.40
60212;BME280;46079;48.686;15.598;2023-04-09T07:15:31;100608.44;;;18.93;41.47
60212;BME280;46079;48.686;15.598;2023-04-09T07:17:57;100602.00;;;18.97;41.55
60212;BME280;46079;48.686;15.598;2023-04-09T07:20:22;100613.97;;;19.01;41.77
60212;BME280;46079;48.686;15.598;2023-04-09T07:22:48;100615.63;;;19.02;41.68
60212;BME280;46079;48.686;15.598;2023-04-09T07:25:14;100616.22;;;19.06;41.86
60212;BME280;46079;48.686;15.598;2023-04-09T07:27:40;100616.88;;;19.09;41.72
60212;BME280;46079;48.686;15.598;2023-04-09T07:30:07;100620.09;;;19.13;41.82
60212;BME280;46079;48.686;15.598;2023-04-09T07:32:32;100621.66;;;19.16;41.81
60212;BME280;46079;48.686;15.598;2023-04-09T07:34:58;100627.63;;;19.18;41.79
60212;BME280;46079;48.686;15.598;2023-04-09T07:37:24;100630.03;;;19.21;41.81
60212;BME280;46079;48.686;15.598;2023-04-09T07:39:52;100621.19;;;19.22;41.83
60212;BME280;46079;48.686;15.598;2023-04-09T07:42:17;100623.72;;;19.23;41.62
60212;BME280;46079;48.686;15.598;2023-04-09T07:44:43;100629.56;;;19.27;41.90
60212;BME280;46079;48.686;15.598;2023-04-09T07:47:08;100629.47;;;19.28;41.82
60212;BME280;46079;48.686;15.598;2023-04-09T07:49:35;100629.34;;;19.30;41.86
60212;BME280;46079;48.686;15.598;2023-04-09T07:52:02;100627.44;;;19.32;41.96
60212;BME280;46079;48.686;15.598;2023-04-09T07:54:28;100633.41;;;19.34;41.73
60212;BME280;46079;48.686;15.598;2023-04-09T07:56:55;100632.47;;;19.35;41.72
60212;BME280;46079;48.686;15.598;2023-04-09T07:59:22;100628.88;;;19.36;41.68
60212;BME280;46079;48.686;15.598;2023-04-09T08:01:48;100628.78;;;19.38;41.79
60212;BME280;46079;48.686;15.598;2023-04-09T08:04:13;100633.91;;;19.39;41.74
60212;BME280;46079;48.686;15.598;2023-04-09T08:06:39;100633.78;;;19.41;41.67
60212;BME280;46079;48.686;15.598;2023-04-09T08:09:05;100639.88;;;19.41;41.86
60212;BME280;46079;48.686;15.598;2023-04-09T08:11:31;100642.25;;;19.44;41.60
60212;BME280;46079;48.686;15.598;2023-04-09T08:13:56;100637.00;;;19.44;41.79
60212;BME280;46079;48.686;15.598;2023-04-09T08:16:22;100641.31;;;19.45;41.42
60212;BME280;46079;48.686;15.598;2023-04-09T08:18:51;100640.38;;;19.46;41.60
60212;BME280;46079;48.686;15.598;2023-04-09T08:21:17;100642.88;;;19.48;41.76
60212;BME280;46079;48.686;15.598;2023-04-09T08:23:42;100641.09;;;19.48;41.73
60212;BME280;46079;48.686;15.598;2023-04-09T08:26:08;100640.13;;;19.49;41.55
60212;BME280;46079;48.686;15.598;2023-04-09T08:28:33;100647.06;;;19.50;41.37
60212;BME280;46079;48.686;15.598;2023-04-09T08:30:58;100640.88;;;19.51;41.54
60212;BME280;46079;48.686;15.598;2023-04-09T08:33:24;100641.59;;;19.53;41.85
60212;BME280;46079;48.686;15.598;2023-04-09T08:35:50;100647.56;;;19.55;41.54
60212;BME280;46079;48.686;15.598;2023-04-09T08:38:17;100647.56;;;19.55;41.52
60212;BME280;46079;48.686;15.598;2023-04-09T08:40:43;100651.84;;;19.57;41.57
60212;BME280;46079;48.686;15.598;2023-04-09T08:43:09;100643.97;;;19.57;41.77
60212;BME280;46079;48.686;15.598;2023-04-09T08:45:40;100654.38;;;19.58;41.67
60212;BME280;46079;48.686;15.598;2023-04-09T08:48:08;100649.97;;;19.59;41.70
60212;BME280;46079;48.686;15.598;2023-04-09T08:50:34;100651.63;;;19.60;41.70
60212;BME280;46079;48.686;15.598;2023-04-09T08:53:04;100652.47;;;19.60;41.59
60212;BME280;46079;48.686;15.598;2023-04-09T08:55:30;100652.47;;;19.60;41.89
60212;BME280;46079;48.686;15.598;2023-04-09T08:57:56;100652.34;;;19.62;41.87
60212;BME280;46079;48.686;15.598;2023-04-09T09:00:22;100657.47;;;19.63;41.80
60212;BME280;46079;48.686;15.598;2023-04-09T09:03:05;100660.09;;;19.63;41.80
60212;BME280;46079;48.686;15.598;2023-04-09T09:05:36;100662.63;;;19.65;41.72
60212;BME280;46079;48.686;15.598;2023-04-09T09:08:02;100655.56;;;19.65;41.76
60212;BME280;46079;48.686;15.598;2023-04-09T09:10:45;100648.66;;;19.64;42.00
60212;BME280;46079;48.686;15.598;2023-04-09T09:13:25;100665.16;;;19.66;41.72
60212;BME280;46079;48.686;15.598;2023-04-09T09:16:10;100652.03;;;19.66;41.92
60212;BME280;46079;48.686;15.598;2023-04-09T09:18:38;100658.00;;;19.68;41.76
60212;BME280;46079;48.686;15.598;2023-04-09T09:21:16;100655.38;;;19.68;41.63
60212;BME280;46079;48.686;15.598;2023-04-09T09:23:43;100660.53;;;19.70;41.88
60212;BME280;46079;48.686;15.598;2023-04-09T09:26:15;100653.59;;;19.69;41.81
60212;BME280;46079;48.686;15.598;2023-04-09T09:28:43;100657.91;;;19.70;42.01
60212;BME280;46079;48.686;15.598;2023-04-09T09:31:10;100649.06;;;19.71;41.98
60212;BME280;46079;48.686;15.598;2023-04-09T09:33:37;100655.13;;;19.71;42.15
60212;BME280;46079;48.686;15.598;2023-04-09T09:36:02;100650.75;;;19.72;41.91
60212;BME280;46079;48.686;15.598;2023-04-09T09:38:29;100649.78;;;19.73;42.01
60212;BME280;46079;48.686;15.598;2023-04-09T09:40:55;100652.28;;;19.74;41.95
60212;BME280;46079;48.686;15.598;2023-04-09T09:43:20;100650.75;;;19.72;41.88
60212;BME280;46079;48.686;15.598;2023-04-09T09:45:46;100650.50;;;19.75;41.83
60212;BME280;46079;48.686;15.598;2023-04-09T09:48:12;100645.28;;;19.75;41.92
60212;BME280;46079;48.686;15.598;2023-04-09T09:50:39;100646.94;;;19.76;41.95
60212;BME280;46079;48.686;15.598;2023-04-09T09:53:07;100642.50;;;19.76;41.84
60212;BME280;46079;48.686;15.598;2023-04-09T09:55:40;100648.59;;;19.77;41.84
60212;BME280;46079;48.686;15.598;2023-04-09T09:58:11;100651.22;;;19.77;41.71
60212;BME280;46079;48.686;15.598;2023-04-09T10:00:40;100648.47;;;19.79;41.90
60212;BME280;46079;48.686;15.598;2023-04-09T10:03:28;100646.69;;;19.79;41.96
60212;BME280;46079;48.686;15.598;2023-04-09T10:05:54;100651.13;;;19.79;41.85
60212;BME280;46079;48.686;15.598;2023-04-09T10:08:22;100650.16;;;19.80;41.72
60212;BME280;46079;48.686;15.598;2023-04-09T10:10:49;100649.31;;;19.79;41.86
60212;BME280;46079;48.686;15.598;2023-04-09T10:13:24;100649.31;;;19.79;41.96
60212;BME280;46079;48.686;15.598;2023-04-09T10:15:51;100647.53;;;19.80;41.86
60212;BME280;46079;48.686;15.598;2023-04-09T10:18:17;100644.78;;;19.81;41.96
60212;BME280;46079;48.686;15.598;2023-04-09T10:22:04;100643.84;;;19.82;41.94
60212;BME280;46079;48.686;15.598;2023-04-09T10:23:58;100638.56;;;19.82;41.96
60212;BME280;46079;48.686;15.598;2023-04-09T10:26:25;100637.66;;;19.83;42.03
60212;BME280;46079;48.686;15.598;2023-04-09T10:29:06;100644.56;;;19.84;42.04
60212;BME280;46079;48.686;15.598;2023-04-09T10:32:04;100645.53;;;19.83;42.02
60212;BME280;46079;48.686;15.598;2023-04-09T10:34:34;100639.31;;;19.84;42.29
60212;BME280;46079;48.686;15.598;2023-04-09T10:37:00;100640.97;;;19.85;42.03
60212;BME280;46079;48.686;15.598;2023-04-09T10:39:27;100633.09;;;19.85;42.15
60212;BME280;46079;48.686;15.598;2023-04-09T10:41:54;100640.03;;;19.86;42.42
60212;BME280;46079;48.686;15.598;2023-04-09T10:44:25;100627.75;;;19.87;42.46
60212;BME280;46079;48.686;15.598;2023-04-09T10:46:56;100630.25;;;19.88;42.46
60212;BME280;46079;48.686;15.598;2023-04-09T10:49:24;100623.31;;;19.87;42.55
60212;BME280;46079;48.686;15.598;2023-04-09T10:52:00;100625.84;;;19.89;42.54
60212;BME280;46079;48.686;15.598;2023-04-09T10:59:37;100621.41;;;19.89;42.61
60212;BME280;46079;48.686;15.598;2023-04-09T11:02:15;100621.41;;;19.89;42.49
60212;BME280;46079;48.686;15.598;2023-04-09T11:07:23;100618.78;;;19.89;42.57
60212;BME280;46079;48.686;15.598;2023-04-09T11:09:49;100616.16;;;19.89;42.25
60212;BME280;46079;48.686;15.598;2023-04-09T11:12:14;100622.25;;;19.90;42.34
60212;BME280;46079;48.686;15.598;2023-04-09T11:14:40;100622.25;;;19.90;42.31
60212;BME280;46079;48.686;15.598;2023-04-09T11:17:05;100618.66;;;19.91;42.49
60212;BME280;46079;48.686;15.598;2023-04-09T11:19:34;100618.66;;;19.91;42.25
60212;BME280;46079;48.686;15.598;2023-04-09T11:22:03;100616.91;;;19.91;42.49
60212;BME280;46079;48.686;15.598;2023-04-09T11:24:42;100619.53;;;19.91;42.32
60212;BME280;46079;48.686;15.598;2023-04-09T11:27:08;100617.72;;;19.92;42.41
60212;BME280;46079;48.686;15.598;2023-04-09T11:29:34;100605.44;;;19.92;42.37
60212;BME280;46079;48.686;15.598;2023-04-09T11:31:59;100612.47;;;19.92;42.20
60212;BME280;46079;48.686;15.598;2023-04-09T11:34:28;100607.22;;;19.92;42.32
60212;BME280;46079;48.686;15.598;2023-04-09T11:36:53;100622.00;;;19.93;42.43
60212;BME280;46079;48.686;15.598;2023-04-09T11:39:19;100615.81;;;19.94;42.36
60212;BME280;46079;48.686;15.598;2023-04-09T11:41:44;100614.84;;;19.95;42.42
60212;BME280;46079;48.686;15.598;2023-04-09T11:44:11;100608.78;;;19.94;42.37
60212;BME280;46079;48.686;15.598;2023-04-09T11:46:37;100605.31;;;19.94;42.34
60212;BME280;46079;48.686;15.598;2023-04-09T11:49:03;100602.56;;;19.95;42.39
60212;BME280;46079;48.686;15.598;2023-04-09T11:51:29;100608.78;;;19.94;42.23
60212;BME280;46079;48.686;15.598;2023-04-09T11:54:06;100608.78;;;19.94;42.18
60212;BME280;46079;48.686;15.598;2023-04-09T11:56:34;100608.78;;;19.94;42.40
60212;BME280;46079;48.686;15.598;2023-04-09T11:59:01;100604.34;;;19.95;42.38
60212;BME280;46079;48.686;15.598;2023-04-09T12:01:36;100603.53;;;19.94;42.31
60212;BME280;46079;48.686;15.598;2023-04-09T12:04:01;100602.69;;;19.94;42.23
60212;BME280;46079;48.686;15.598;2023-04-09T12:06:27;100607.09;;;19.93;42.19
60212;BME280;46079;48.686;15.598;2023-04-09T12:08:57;100606.16;;;19.94;42.36
60212;BME280;46079;48.686;15.598;2023-04-09T12:11:30;100608.78;;;19.94;42.37
60212;BME280;46079;48.686;15.598;2023-04-09T12:14:03;100603.53;;;19.94;42.29
60212;BME280;46079;48.686;15.598;2023-04-09T12:16:30;100610.56;;;19.94;42.25
60212;BME280;46079;48.686;15.598;2023-04-09T12:19:04;100613.06;;;19.95;42.22
60212;BME280;46079;48.686;15.598;2023-04-09T12:21:53;100604.34;;;19.95;42.30
60212;BME280;46079;48.686;15.598;2023-04-09T12:24:22;100619.28;;;19.94;42.25
60212;BME280;46079;48.686;15.598;2023-04-09T12:26:48;100617.50;;;19.95;42.05
60212;BME280;46079;48.686;15.598;2023-04-09T12:29:14;100623.56;;;19.95;42.40
60212;BME280;46079;48.686;15.598;2023-04-09T12:31:41;100620.09;;;19.95;42.11
60212;BME280;46079;48.686;15.598;2023-04-09T12:34:07;100608.78;;;19.94;42.26
60212;BME280;46079;48.686;15.598;2023-04-09T12:36:32;100614.03;;;19.94;42.25
60212;BME280;46079;48.686;15.598;2023-04-09T12:38:57;100620.94;;;19.95;42.32
60212;BME280;46079;48.686;15.598;2023-04-09T12:41:23;100618.44;;;19.94;42.37
60212;BME280;46079;48.686;15.598;2023-04-09T12:43:48;100619.28;;;19.94;42.02
60212;BME280;46079;48.686;15.598;2023-04-09T12:46:14;100620.22;;;19.93;42.17
60212;BME280;46079;48.686;15.598;2023-04-09T12:48:39;100613.19;;;19.94;42.23
60212;BME280;46079;48.686;15.598;2023-04-09T12:51:05;100622.84;;;19.93;42.30
60212;BME280;46079;48.686;15.598;2023-04-09T12:53:31;100623.81;;;19.92;42.11
60212;BME280;46079;48.686;15.598;2023-04-09T12:55:57;100616.75;;;19.93;42.11
60212;BME280;46079;48.686;15.598;2023-04-09T12:58:23;100610.69;;;19.92;42.02
60212;BME280;46079;48.686;15.598;2023-04-09T13:00:48;100599.34;;;19.92;41.98
60212;BME280;46079;48.686;15.598;2023-04-09T13:03:14;100598.50;;;19.91;42.19